Union Star, KY

3:10 AM CDT on June 02, 2015 (GMT -0500)
Louisville International-Standiford | | Change Station
CLOSE
Current Station
Airport
Location: Louisville,
Elevation: 489 ft
Nearby Weather Stations

Elev 489 ft 38.17 °N, 85.74 °W | Updated 14 minutes ago

Overcast
Overcast
59 °F
Feels Like 59 °F
N
9
Wind Variable Wind from NE

Today
High -- | Low -- °F
--% Chance of Precip.
Yesterday
High -- | Low -- °F
Precip. -- in
5:24 AM 8:03 PM
Full, 100% visible
Pressure 30.09 in
Visibility 10.0 miles
Clouds Overcast 1400 ft
Dew Point 52 °F
Humidity 78%
Rainfall 0.00 in
Snow Depth Not available.
UV 0 out of 12
Pollen 5.40 out of 12
Air Quality Not available.
Flu Activity No Activity
METAR KSDF 020756Z 05008KT 10SM OVC014 15/11 A3010 RMK AO2 SLP190 T01500111

More Conditions Fewer Conditions

Pressure 30.09 in
Visibility 10.0 miles
Clouds Overcast 1400 ft
Dew Point 52 °F
Humidity 78%
Rainfall 0.00 in
Snow Depth Not available.
UV 0 out of 12
Pollen 5.40 out of 12
Air Quality Not available.
Flu Activity No Activity
METAR KSDF 020756Z 05008KT 10SM OVC014 15/11 A3010 RMK AO2 SLP190 T01500111

More Conditions Fewer Conditions

10-Day Weather Forecast

Almanac

Astronomy

Jun. 02, 2015 Rise Set
Actual Time
Civil Twilight
Nautical Twilight
Astronomical Twilight
Moon
Length of Visible Light
Length of Day
Tomorrow will be .
, % of the Moon is Illuminated

Today's Extremes

State Highs State Lows

Community

WunderPhotos

Upload Photos

1,825,895 photos uploaded!

WunderBlogs® & News

Nearby

Air Quality

  Air Quality AQ Index Pollutant
Not available.

Snow Depth

Station Depth Elevation

Earthquake Activity

City Distance Mag. Time & Date
Minimum magnitude displayed is 2.5.

Coastal Water Temperatures

Place Temperature

Stations

Nearby Weather Stations

Station Location Temp. Windchill Dew Point Humidity Wind Precip. Elev Updated Type